sensor_id;sensor_type;location;lat;lon;timestamp;P1;durP1;ratioP1;P2;durP2;ratioP2
2576;SDS011;1298;51.252;6.802;2023-12-07T00:02:20;0.90;;;0.90;;
2576;SDS011;1298;51.252;6.802;2023-12-07T00:05:06;0.85;;;0.85;;
2576;SDS011;1298;51.252;6.802;2023-12-07T00:07:52;0.77;;;0.77;;
2576;SDS011;1298;51.252;6.802;2023-12-07T00:10:38;0.85;;;0.85;;
2576;SDS011;1298;51.252;6.802;2023-12-07T00:13:25;0.82;;;0.82;;
2576;SDS011;1298;51.252;6.802;2023-12-07T00:16:11;0.80;;;0.80;;
2576;SDS011;1298;51.252;6.802;2023-12-07T00:18:59;0.88;;;0.88;;
2576;SDS011;1298;51.252;6.802;2023-12-07T00:21:44;0.93;;;0.93;;
2576;SDS011;1298;51.252;6.802;2023-12-07T00:24:30;0.93;;;0.93;;
2576;SDS011;1298;51.252;6.802;2023-12-07T00:27:15;0.98;;;0.98;;
2576;SDS011;1298;51.252;6.802;2023-12-07T00:30:03;0.82;;;0.82;;
2576;SDS011;1298;51.252;6.802;2023-12-07T00:32:49;0.70;;;0.70;;
2576;SDS011;1298;51.252;6.802;2023-12-07T00:35:34;0.70;;;0.70;;
2576;SDS011;1298;51.252;6.802;2023-12-07T00:38:22;0.63;;;0.63;;
2576;SDS011;1298;51.252;6.802;2023-12-07T00:41:08;0.85;;;0.85;;
2576;SDS011;1298;51.252;6.802;2023-12-07T00:43:55;0.85;;;0.85;;
2576;SDS011;1298;51.252;6.802;2023-12-07T00:46:41;0.82;;;0.82;;
2576;SDS011;1298;51.252;6.802;2023-12-07T00:49:27;0.90;;;0.90;;
2576;SDS011;1298;51.252;6.802;2023-12-07T00:52:12;0.90;;;0.90;;
2576;SDS011;1298;51.252;6.802;2023-12-07T00:54:58;0.88;;;0.88;;
2576;SDS011;1298;51.252;6.802;2023-12-07T00:57:44;0.90;;;0.90;;
2576;SDS011;1298;51.252;6.802;2023-12-07T01:00:29;0.82;;;0.82;;
2576;SDS011;1298;51.252;6.802;2023-12-07T01:03:16;0.90;;;0.90;;
2576;SDS011;1298;51.252;6.802;2023-12-07T01:06:02;0.90;;;0.90;;
2576;SDS011;1298;51.252;6.802;2023-12-07T01:08:48;0.95;;;0.95;;
2576;SDS011;1298;51.252;6.802;2023-12-07T01:11:33;1.00;;;1.00;;
2576;SDS011;1298;51.252;6.802;2023-12-07T01:14:19;1.00;;;1.00;;
2576;SDS011;1298;51.252;6.802;2023-12-07T01:17:04;1.00;;;1.00;;
2576;SDS011;1298;51.252;6.802;2023-12-07T01:19:51;1.00;;;1.00;;
2576;SDS011;1298;51.252;6.802;2023-12-07T01:22:38;1.00;;;1.00;;
2576;SDS011;1298;51.252;6.802;2023-12-07T01:25:23;1.00;;;1.00;;
2576;SDS011;1298;51.252;6.802;2023-12-07T01:28:09;1.00;;;1.00;;
2576;SDS011;1298;51.252;6.802;2023-12-07T01:30:55;1.05;;;1.05;;
2576;SDS011;1298;51.252;6.802;2023-12-07T01:33:40;1.10;;;1.10;;
2576;SDS011;1298;51.252;6.802;2023-12-07T01:36:27;1.05;;;1.05;;
2576;SDS011;1298;51.252;6.802;2023-12-07T01:39:12;1.08;;;1.08;;
2576;SDS011;1298;51.252;6.802;2023-12-07T01:41:58;1.20;;;1.20;;
2576;SDS011;1298;51.252;6.802;2023-12-07T01:44:44;9.30;;;8.60;;
2576;SDS011;1298;51.252;6.802;2023-12-07T01:47:29;4.25;;;4.00;;
2576;SDS011;1298;51.252;6.802;2023-12-07T01:50:16;3.03;;;2.83;;
2576;SDS011;1298;51.252;6.802;2023-12-07T01:53:08;1.05;;;1.05;;
2576;SDS011;1298;51.252;6.802;2023-12-07T01:55:56;1.10;;;1.10;;
2576;SDS011;1298;51.252;6.802;2023-12-07T01:58:42;1.08;;;1.08;;
2576;SDS011;1298;51.252;6.802;2023-12-07T02:01:29;1.10;;;1.10;;
2576;SDS011;1298;51.252;6.802;2023-12-07T02:04:14;1.00;;;1.00;;
2576;SDS011;1298;51.252;6.802;2023-12-07T02:06:59;1.10;;;1.10;;
2576;SDS011;1298;51.252;6.802;2023-12-07T02:09:49;1.10;;;1.10;;
2576;SDS011;1298;51.252;6.802;2023-12-07T02:12:36;1.02;;;1.02;;
2576;SDS011;1298;51.252;6.802;2023-12-07T02:15:22;1.15;;;1.15;;
2576;SDS011;1298;51.252;6.802;2023-12-07T02:18:10;1.10;;;1.10;;
2576;SDS011;1298;51.252;6.802;2023-12-07T02:21:01;1.10;;;1.10;;
2576;SDS011;1298;51.252;6.802;2023-12-07T02:23:54;1.02;;;1.02;;
2576;SDS011;1298;51.252;6.802;2023-12-07T02:26:42;1.05;;;1.05;;
2576;SDS011;1298;51.252;6.802;2023-12-07T02:29:27;1.08;;;1.08;;
2576;SDS011;1298;51.252;6.802;2023-12-07T02:32:13;1.05;;;1.05;;
2576;SDS011;1298;51.252;6.802;2023-12-07T02:34:58;1.30;;;1.30;;
2576;SDS011;1298;51.252;6.802;2023-12-07T02:37:45;1.00;;;1.00;;
2576;SDS011;1298;51.252;6.802;2023-12-07T02:40:32;1.00;;;1.00;;
2576;SDS011;1298;51.252;6.802;2023-12-07T02:43:20;1.10;;;1.10;;
2576;SDS011;1298;51.252;6.802;2023-12-07T02:46:06;1.13;;;1.13;;
2576;SDS011;1298;51.252;6.802;2023-12-07T02:48:52;1.10;;;1.10;;
2576;SDS011;1298;51.252;6.802;2023-12-07T02:51:37;1.00;;;1.00;;
2576;SDS011;1298;51.252;6.802;2023-12-07T02:54:23;1.60;;;1.55;;
2576;SDS011;1298;51.252;6.802;2023-12-07T02:57:09;1.65;;;1.58;;
2576;SDS011;1298;51.252;6.802;2023-12-07T02:59:55;1.17;;;1.17;;
2576;SDS011;1298;51.252;6.802;2023-12-07T03:02:41;2.00;;;1.90;;
2576;SDS011;1298;51.252;6.802;2023-12-07T03:05:27;2.08;;;1.98;;
2576;SDS011;1298;51.252;6.802;2023-12-07T03:08:12;1.00;;;1.00;;
2576;SDS011;1298;51.252;6.802;2023-12-07T03:10:58;1.73;;;1.65;;
2576;SDS011;1298;51.252;6.802;2023-12-07T03:13:43;1.77;;;1.70;;
2576;SDS011;1298;51.252;6.802;2023-12-07T03:16:30;3.03;;;2.85;;
2576;SDS011;1298;51.252;6.802;2023-12-07T03:19:16;2.33;;;2.20;;
2576;SDS011;1298;51.252;6.802;2023-12-07T03:22:01;3.03;;;2.85;;
2576;SDS011;1298;51.252;6.802;2023-12-07T03:24:50;4.55;;;4.25;;
2576;SDS011;1298;51.252;6.802;2023-12-07T03:27:37;5.95;;;5.55;;
2576;SDS011;1298;51.252;6.802;2023-12-07T03:30:22;4.50;;;4.20;;
2576;SDS011;1298;51.252;6.802;2023-12-07T03:33:09;3.83;;;3.60;;
2576;SDS011;1298;51.252;6.802;2023-12-07T03:35:55;3.47;;;3.28;;
2576;SDS011;1298;51.252;6.802;2023-12-07T03:38:40;5.03;;;4.70;;
2576;SDS011;1298;51.252;6.802;2023-12-07T03:41:26;4.35;;;4.05;;
2576;SDS011;1298;51.252;6.802;2023-12-07T03:44:11;4.88;;;4.55;;
2576;SDS011;1298;51.252;6.802;2023-12-07T03:46:57;4.38;;;4.07;;
2576;SDS011;1298;51.252;6.802;2023-12-07T03:49:45;3.47;;;3.25;;
2576;SDS011;1298;51.252;6.802;2023-12-07T03:52:30;4.88;;;4.55;;
2576;SDS011;1298;51.252;6.802;2023-12-07T03:55:15;3.47;;;3.28;;
2576;SDS011;1298;51.252;6.802;2023-12-07T03:58:01;4.30;;;4.03;;
2576;SDS011;1298;51.252;6.802;2023-12-07T04:00:46;1.70;;;1.65;;
2576;SDS011;1298;51.252;6.802;2023-12-07T04:03:32;3.60;;;3.40;;
2576;SDS011;1298;51.252;6.802;2023-12-07T04:06:20;3.22;;;3.03;;
2576;SDS011;1298;51.252;6.802;2023-12-07T04:09:06;3.50;;;3.30;;
2576;SDS011;1298;51.252;6.802;2023-12-07T04:11:51;4.32;;;4.05;;
2576;SDS011;1298;51.252;6.802;2023-12-07T04:14:37;4.32;;;4.05;;
2576;SDS011;1298;51.252;6.802;2023-12-07T04:17:22;4.65;;;4.35;;
2576;SDS011;1298;51.252;6.802;2023-12-07T04:20:09;4.70;;;4.40;;
2576;SDS011;1298;51.252;6.802;2023-12-07T04:22:56;7.63;;;7.10;;
2576;SDS011;1298;51.252;6.802;2023-12-07T04:25:42;6.50;;;6.05;;
2576;SDS011;1298;51.252;6.802;2023-12-07T04:28:27;5.38;;;5.00;;
2576;SDS011;1298;51.252;6.802;2023-12-07T04:31:13;4.97;;;4.65;;
2576;SDS011;1298;51.252;6.802;2023-12-07T04:33:58;4.13;;;3.90;;
2576;SDS011;1298;51.252;6.802;2023-12-07T04:36:44;4.78;;;4.47;;
2576;SDS011;1298;51.252;6.802;2023-12-07T04:39:31;7.45;;;6.93;;
2576;SDS011;1298;51.252;6.802;2023-12-07T04:42:17;7.63;;;7.10;;
2576;SDS011;1298;51.252;6.802;2023-12-07T04:45:02;3.63;;;3.42;;
2576;SDS011;1298;51.252;6.802;2023-12-07T04:47:49;2.92;;;2.78;;
2576;SDS011;1298;51.252;6.802;2023-12-07T04:50:35;3.80;;;3.55;;
2576;SDS011;1298;51.252;6.802;2023-12-07T04:53:20;4.75;;;4.45;;
2576;SDS011;1298;51.252;6.802;2023-12-07T04:56:08;4.25;;;4.00;;
2576;SDS011;1298;51.252;6.802;2023-12-07T04:58:54;6.05;;;5.60;;
2576;SDS011;1298;51.252;6.802;2023-12-07T05:01:39;5.28;;;4.93;;
2576;SDS011;1298;51.252;6.802;2023-12-07T05:04:25;7.50;;;6.95;;
2576;SDS011;1298;51.252;6.802;2023-12-07T05:07:11;6.50;;;6.05;;
2576;SDS011;1298;51.252;6.802;2023-12-07T05:09:56;6.88;;;6.43;;
2576;SDS011;1298;51.252;6.802;2023-12-07T05:12:43;4.70;;;4.40;;
2576;SDS011;1298;51.252;6.802;2023-12-07T05:15:29;5.60;;;5.25;;
2576;SDS011;1298;51.252;6.802;2023-12-07T05:18:14;6.45;;;6.03;;
2576;SDS011;1298;51.252;6.802;2023-12-07T05:21:00;6.88;;;6.43;;
2576;SDS011;1298;51.252;6.802;2023-12-07T05:23:46;4.90;;;4.60;;
2576;SDS011;1298;51.252;6.802;2023-12-07T05:26:32;4.80;;;4.50;;
2576;SDS011;1298;51.252;6.802;2023-12-07T05:29:19;4.82;;;4.53;;
2576;SDS011;1298;51.252;6.802;2023-12-07T05:32:05;5.70;;;5.35;;
2576;SDS011;1298;51.252;6.802;2023-12-07T05:34:51;7.03;;;6.50;;
2576;SDS011;1298;51.252;6.802;2023-12-07T05:37:37;10.88;;;10.05;;
2576;SDS011;1298;51.252;6.802;2023-12-07T05:40:22;11.27;;;10.43;;
2576;SDS011;1298;51.252;6.802;2023-12-07T05:43:08;11.18;;;10.32;;
2576;SDS011;1298;51.252;6.802;2023-12-07T05:45:55;12.98;;;11.98;;
2576;SDS011;1298;51.252;6.802;2023-12-07T05:48:40;14.32;;;13.23;;
2576;SDS011;1298;51.252;6.802;2023-12-07T05:51:26;14.63;;;13.48;;
2576;SDS011;1298;51.252;6.802;2023-12-07T05:54:12;16.77;;;15.45;;
2576;SDS011;1298;51.252;6.802;2023-12-07T05:56:57;15.25;;;14.02;;
2576;SDS011;1298;51.252;6.802;2023-12-07T05:59:44;14.23;;;13.10;;
2576;SDS011;1298;51.252;6.802;2023-12-07T06:02:30;15.95;;;14.68;;
2576;SDS011;1298;51.252;6.802;2023-12-07T06:05:16;16.88;;;15.57;;
2576;SDS011;1298;51.252;6.802;2023-12-07T06:08:02;17.13;;;15.82;;
2576;SDS011;1298;51.252;6.802;2023-12-07T06:10:48;16.67;;;15.35;;
2576;SDS011;1298;51.252;6.802;2023-12-07T06:13:34;18.23;;;16.77;;
2576;SDS011;1298;51.252;6.802;2023-12-07T06:16:19;17.25;;;15.85;;
2576;SDS011;1298;51.252;6.802;2023-12-07T06:19:06;18.65;;;17.13;;
2576;SDS011;1298;51.252;6.802;2023-12-07T06:21:52;17.42;;;16.02;;
2576;SDS011;1298;51.252;6.802;2023-12-07T06:24:38;17.52;;;16.13;;
2576;SDS011;1298;51.252;6.802;2023-12-07T06:27:23;17.30;;;15.90;;
2576;SDS011;1298;51.252;6.802;2023-12-07T06:30:09;15.52;;;14.25;;
2576;SDS011;1298;51.252;6.802;2023-12-07T06:32:55;15.85;;;14.55;;
2576;SDS011;1298;51.252;6.802;2023-12-07T06:35:42;16.25;;;14.90;;
2576;SDS011;1298;51.252;6.802;2023-12-07T06:38:28;16.90;;;15.50;;
2576;SDS011;1298;51.252;6.802;2023-12-07T06:41:13;15.75;;;14.45;;
2576;SDS011;1298;51.252;6.802;2023-12-07T06:43:59;12.13;;;11.15;;
2576;SDS011;1298;51.252;6.802;2023-12-07T06:46:45;2.67;;;2.55;;
2576;SDS011;1298;51.252;6.802;2023-12-07T06:49:30;4.53;;;4.22;;
2576;SDS011;1298;51.252;6.802;2023-12-07T06:52:17;2.50;;;2.38;;
2576;SDS011;1298;51.252;6.802;2023-12-07T06:55:03;4.07;;;3.83;;
2576;SDS011;1298;51.252;6.802;2023-12-07T06:57:49;5.60;;;5.18;;
2576;SDS011;1298;51.252;6.802;2023-12-07T07:00:35;3.47;;;3.28;;
2576;SDS011;1298;51.252;6.802;2023-12-07T07:03:20;5.47;;;5.10;;
2576;SDS011;1298;51.252;6.802;2023-12-07T07:06:06;4.72;;;4.40;;
2576;SDS011;1298;51.252;6.802;2023-12-07T07:08:53;6.95;;;6.45;;
2576;SDS011;1298;51.252;6.802;2023-12-07T07:11:39;5.90;;;5.45;;
2576;SDS011;1298;51.252;6.802;2023-12-07T07:14:24;6.50;;;6.05;;
2576;SDS011;1298;51.252;6.802;2023-12-07T07:17:10;13.10;;;12.07;;
2576;SDS011;1298;51.252;6.802;2023-12-07T07:19:55;14.05;;;12.93;;
2576;SDS011;1298;51.252;6.802;2023-12-07T07:22:41;13.90;;;12.77;;
2576;SDS011;1298;51.252;6.802;2023-12-07T07:25:28;8.40;;;7.80;;
2576;SDS011;1298;51.252;6.802;2023-12-07T07:28:14;13.23;;;12.25;;
2576;SDS011;1298;51.252;6.802;2023-12-07T07:30:59;11.98;;;11.05;;
2576;SDS011;1298;51.252;6.802;2023-12-07T07:33:46;6.28;;;5.82;;
2576;SDS011;1298;51.252;6.802;2023-12-07T07:36:32;7.53;;;6.97;;
2576;SDS011;1298;51.252;6.802;2023-12-07T07:39:17;6.30;;;5.85;;
2576;SDS011;1298;51.252;6.802;2023-12-07T07:42:04;12.55;;;11.55;;
2576;SDS011;1298;51.252;6.802;2023-12-07T07:44:50;11.70;;;10.77;;
2576;SDS011;1298;51.252;6.802;2023-12-07T07:47:36;11.98;;;11.05;;
2576;SDS011;1298;51.252;6.802;2023-12-07T07:50:21;13.13;;;12.10;;
2576;SDS011;1298;51.252;6.802;2023-12-07T07:53:07;13.18;;;12.15;;
2576;SDS011;1298;51.252;6.802;2023-12-07T07:55:52;12.43;;;11.45;;
2576;SDS011;1298;51.252;6.802;2023-12-07T07:58:39;14.55;;;13.45;;
2576;SDS011;1298;51.252;6.802;2023-12-07T08:01:25;12.20;;;11.27;;
2576;SDS011;1298;51.252;6.802;2023-12-07T08:04:10;13.77;;;12.68;;
2576;SDS011;1298;51.252;6.802;2023-12-07T08:06:56;14.65;;;13.50;;
2576;SDS011;1298;51.252;6.802;2023-12-07T08:09:42;13.52;;;12.45;;
2576;SDS011;1298;51.252;6.802;2023-12-07T08:12:27;13.25;;;12.23;;
2576;SDS011;1298;51.252;6.802;2023-12-07T08:15:14;11.65;;;10.75;;
2576;SDS011;1298;51.252;6.802;2023-12-07T08:18:00;11.90;;;10.98;;
2576;SDS011;1298;51.252;6.802;2023-12-07T08:20:45;13.93;;;12.82;;
2576;SDS011;1298;51.252;6.802;2023-12-07T08:23:31;8.27;;;7.68;;
2576;SDS011;1298;51.252;6.802;2023-12-07T08:26:20;12.70;;;11.75;;
2576;SDS011;1298;51.252;6.802;2023-12-07T08:29:05;12.93;;;11.93;;
2576;SDS011;1298;51.252;6.802;2023-12-07T08:31:52;9.38;;;8.65;;
2576;SDS011;1298;51.252;6.802;2023-12-07T08:34:38;11.85;;;10.93;;
2576;SDS011;1298;51.252;6.802;2023-12-07T08:37:23;12.00;;;11.07;;
2576;SDS011;1298;51.252;6.802;2023-12-07T08:40:09;13.90;;;12.80;;
2576;SDS011;1298;51.252;6.802;2023-12-07T08:42:58;13.60;;;12.52;;
2576;SDS011;1298;51.252;6.802;2023-12-07T08:45:44;11.45;;;10.55;;
2576;SDS011;1298;51.252;6.802;2023-12-07T08:48:30;7.75;;;7.20;;
2576;SDS011;1298;51.252;6.802;2023-12-07T08:51:16;9.35;;;8.65;;
2576;SDS011;1298;51.252;6.802;2023-12-07T08:54:01;4.93;;;4.60;;
2576;SDS011;1298;51.252;6.802;2023-12-07T08:56:50;6.07;;;5.63;;
2576;SDS011;1298;51.252;6.802;2023-12-07T08:59:36;7.25;;;6.70;;
2576;SDS011;1298;51.252;6.802;2023-12-07T09:02:22;7.57;;;7.03;;
2576;SDS011;1298;51.252;6.802;2023-12-07T09:05:12;11.80;;;10.88;;
2576;SDS011;1298;51.252;6.802;2023-12-07T09:07:57;13.43;;;12.38;;
2576;SDS011;1298;51.252;6.802;2023-12-07T09:10:43;8.55;;;7.90;;
2576;SDS011;1298;51.252;6.802;2023-12-07T09:13:28;12.60;;;11.60;;
2576;SDS011;1298;51.252;6.802;2023-12-07T09:16:14;7.95;;;7.35;;
2576;SDS011;1298;51.252;6.802;2023-12-07T09:18:59;12.07;;;11.13;;
2576;SDS011;1298;51.252;6.802;2023-12-07T09:21:47;12.30;;;11.32;;
2576;SDS011;1298;51.252;6.802;2023-12-07T09:24:32;11.70;;;10.77;;
2576;SDS011;1298;51.252;6.802;2023-12-07T09:27:18;12.88;;;11.88;;
2576;SDS011;1298;51.252;6.802;2023-12-07T09:30:04;14.30;;;13.15;;
2576;SDS011;1298;51.252;6.802;2023-12-07T09:32:51;16.13;;;14.82;;
2576;SDS011;1298;51.252;6.802;2023-12-07T09:35:40;16.55;;;15.23;;
2576;SDS011;1298;51.252;6.802;2023-12-07T09:38:26;15.18;;;13.95;;
2576;SDS011;1298;51.252;6.802;2023-12-07T09:41:12;17.35;;;15.93;;
2576;SDS011;1298;51.252;6.802;2023-12-07T09:43:58;17.00;;;15.60;;
2576;SDS011;1298;51.252;6.802;2023-12-07T09:46:44;16.10;;;14.75;;
2576;SDS011;1298;51.252;6.802;2023-12-07T09:49:33;17.67;;;16.23;;
2576;SDS011;1298;51.252;6.802;2023-12-07T09:52:20;16.15;;;14.82;;
2576;SDS011;1298;51.252;6.802;2023-12-07T09:55:08;16.83;;;15.43;;
2576;SDS011;1298;51.252;6.802;2023-12-07T09:57:54;17.58;;;16.13;;
2576;SDS011;1298;51.252;6.802;2023-12-07T10:00:41;16.33;;;14.98;;
2576;SDS011;1298;51.252;6.802;2023-12-07T10:03:27;18.02;;;16.52;;
2576;SDS011;1298;51.252;6.802;2023-12-07T10:06:14;17.92;;;16.48;;
2576;SDS011;1298;51.252;6.802;2023-12-07T10:09:02;18.75;;;17.20;;
2576;SDS011;1298;51.252;6.802;2023-12-07T10:11:50;19.17;;;17.58;;
2576;SDS011;1298;51.252;6.802;2023-12-07T10:14:46;18.48;;;16.92;;
2576;SDS011;1298;51.252;6.802;2023-12-07T10:17:48;22.83;;;20.88;;
2576;SDS011;1298;51.252;6.802;2023-12-07T10:20:34;20.92;;;19.20;;
2576;SDS011;1298;51.252;6.802;2023-12-07T10:23:20;21.05;;;19.27;;
2576;SDS011;1298;51.252;6.802;2023-12-07T10:26:07;21.90;;;20.02;;
2576;SDS011;1298;51.252;6.802;2023-12-07T10:28:55;23.17;;;21.25;;
2576;SDS011;1298;51.252;6.802;2023-12-07T10:31:42;21.60;;;19.75;;
2576;SDS011;1298;51.252;6.802;2023-12-07T10:34:27;20.60;;;18.83;;
2576;SDS011;1298;51.252;6.802;2023-12-07T10:37:13;23.63;;;21.60;;
2576;SDS011;1298;51.252;6.802;2023-12-07T10:39:59;23.85;;;21.80;;
2576;SDS011;1298;51.252;6.802;2023-12-07T10:42:45;23.98;;;21.88;;
2576;SDS011;1298;51.252;6.802;2023-12-07T10:45:34;23.75;;;21.67;;
2576;SDS011;1298;51.252;6.802;2023-12-07T10:48:20;25.27;;;23.08;;
2576;SDS011;1298;51.252;6.802;2023-12-07T10:51:07;24.83;;;22.63;;
2576;SDS011;1298;51.252;6.802;2023-12-07T10:53:54;25.10;;;22.90;;
2576;SDS011;1298;51.252;6.802;2023-12-07T10:56:43;25.60;;;23.38;;
2576;SDS011;1298;51.252;6.802;2023-12-07T10:59:29;25.20;;;23.00;;
2576;SDS011;1298;51.252;6.802;2023-12-07T11:02:17;24.88;;;22.70;;
2576;SDS011;1298;51.252;6.802;2023-12-07T11:05:05;24.42;;;22.33;;
2576;SDS011;1298;51.252;6.802;2023-12-07T11:07:53;23.10;;;21.10;;
2576;SDS011;1298;51.252;6.802;2023-12-07T11:10:45;21.15;;;19.38;;
2576;SDS011;1298;51.252;6.802;2023-12-07T11:13:38;22.30;;;20.42;;
2576;SDS011;1298;51.252;6.802;2023-12-07T11:16:31;23.15;;;21.17;;
2576;SDS011;1298;51.252;6.802;2023-12-07T11:22:32;21.27;;;19.48;;
2576;SDS011;1298;51.252;6.802;2023-12-07T11:25:17;22.10;;;20.23;;
2576;SDS011;1298;51.252;6.802;2023-12-07T11:28:05;23.58;;;21.55;;
2576;SDS011;1298;51.252;6.802;2023-12-07T11:30:52;24.13;;;22.10;;
2576;SDS011;1298;51.252;6.802;2023-12-07T11:33:39;24.33;;;22.27;;
2576;SDS011;1298;51.252;6.802;2023-12-07T11:36:30;23.85;;;21.85;;
2576;SDS011;1298;51.252;6.802;2023-12-07T11:39:16;23.25;;;21.25;;
2576;SDS011;1298;51.252;6.802;2023-12-07T11:42:09;23.77;;;21.75;;
2576;SDS011;1298;51.252;6.802;2023-12-07T11:44:56;23.73;;;21.73;;
2576;SDS011;1298;51.252;6.802;2023-12-07T11:47:42;24.30;;;22.23;;
2576;SDS011;1298;51.252;6.802;2023-12-07T11:50:32;20.58;;;18.83;;
2576;SDS011;1298;51.252;6.802;2023-12-07T11:53:21;22.90;;;20.98;;
2576;SDS011;1298;51.252;6.802;2023-12-07T11:56:07;21.27;;;19.50;;
2576;SDS011;1298;51.252;6.802;2023-12-07T11:58:54;22.90;;;20.90;;
2576;SDS011;1298;51.252;6.802;2023-12-07T12:01:42;24.92;;;22.73;;
2576;SDS011;1298;51.252;6.802;2023-12-07T12:04:32;24.15;;;22.08;;
2576;SDS011;1298;51.252;6.802;2023-12-07T12:07:17;24.52;;;22.42;;
2576;SDS011;1298;51.252;6.802;2023-12-07T12:10:04;24.52;;;22.40;;
2576;SDS011;1298;51.252;6.802;2023-12-07T12:12:51;25.20;;;22.95;;
2576;SDS011;1298;51.252;6.802;2023-12-07T12:15:37;25.35;;;23.10;;
2576;SDS011;1298;51.252;6.802;2023-12-07T12:18:24;24.90;;;22.70;;
2576;SDS011;1298;51.252;6.802;2023-12-07T12:21:10;25.20;;;22.95;;
2576;SDS011;1298;51.252;6.802;2023-12-07T12:23:57;25.05;;;22.83;;
2576;SDS011;1298;51.252;6.802;2023-12-07T12:26:44;25.00;;;22.80;;
2576;SDS011;1298;51.252;6.802;2023-12-07T12:29:31;24.70;;;22.50;;
2576;SDS011;1298;51.252;6.802;2023-12-07T12:32:17;25.13;;;22.90;;
2576;SDS011;1298;51.252;6.802;2023-12-07T12:35:06;25.60;;;23.30;;
2576;SDS011;1298;51.252;6.802;2023-12-07T12:37:53;24.90;;;22.70;;
2576;SDS011;1298;51.252;6.802;2023-12-07T12:40:39;25.90;;;23.60;;
2576;SDS011;1298;51.252;6.802;2023-12-07T12:43:29;25.70;;;23.45;;
2576;SDS011;1298;51.252;6.802;2023-12-07T12:46:16;25.15;;;22.90;;
2576;SDS011;1298;51.252;6.802;2023-12-07T12:49:01;25.50;;;23.25;;
2576;SDS011;1298;51.252;6.802;2023-12-07T12:51:48;25.80;;;23.48;;
2576;SDS011;1298;51.252;6.802;2023-12-07T12:54:33;24.92;;;22.67;;
2576;SDS011;1298;51.252;6.802;2023-12-07T12:57:19;24.98;;;22.77;;
2576;SDS011;1298;51.252;6.802;2023-12-07T13:00:08;24.98;;;22.75;;
2576;SDS011;1298;51.252;6.802;2023-12-07T13:02:54;25.08;;;22.88;;
2576;SDS011;1298;51.252;6.802;2023-12-07T13:05:43;26.20;;;23.83;;
2576;SDS011;1298;51.252;6.802;2023-12-07T13:08:28;27.50;;;25.00;;
2576;SDS011;1298;51.252;6.802;2023-12-07T13:11:17;24.77;;;22.83;;
2576;SDS011;1298;51.252;6.802;2023-12-07T13:14:02;26.17;;;24.00;;
2576;SDS011;1298;51.252;6.802;2023-12-07T13:16:51;26.15;;;23.90;;
2576;SDS011;1298;51.252;6.802;2023-12-07T13:19:37;27.00;;;24.65;;
2576;SDS011;1298;51.252;6.802;2023-12-07T13:22:25;26.15;;;23.90;;
2576;SDS011;1298;51.252;6.802;2023-12-07T13:25:11;26.35;;;24.10;;
2576;SDS011;1298;51.252;6.802;2023-12-07T13:27:58;26.15;;;23.90;;
2576;SDS011;1298;51.252;6.802;2023-12-07T13:30:43;24.70;;;22.70;;
2576;SDS011;1298;51.252;6.802;2023-12-07T13:33:30;24.95;;;22.95;;
2576;SDS011;1298;51.252;6.802;2023-12-07T13:36:16;24.20;;;22.27;;
2576;SDS011;1298;51.252;6.802;2023-12-07T13:39:02;23.77;;;21.95;;
2576;SDS011;1298;51.252;6.802;2023-12-07T13:41:47;23.02;;;21.35;;
2576;SDS011;1298;51.252;6.802;2023-12-07T13:44:33;20.90;;;19.42;;
2576;SDS011;1298;51.252;6.802;2023-12-07T13:47:19;22.55;;;20.95;;
2576;SDS011;1298;51.252;6.802;2023-12-07T13:50:08;22.50;;;20.90;;
2576;SDS011;1298;51.252;6.802;2023-12-07T13:52:54;21.48;;;19.98;;
2576;SDS011;1298;51.252;6.802;2023-12-07T13:55:39;22.33;;;20.73;;
2576;SDS011;1298;51.252;6.802;2023-12-07T13:58:25;21.65;;;20.10;;
2576;SDS011;1298;51.252;6.802;2023-12-07T14:01:11;22.20;;;20.60;;
2576;SDS011;1298;51.252;6.802;2023-12-07T14:03:56;21.45;;;19.98;;
2576;SDS011;1298;51.252;6.802;2023-12-07T14:06:43;19.70;;;18.40;;
2576;SDS011;1298;51.252;6.802;2023-12-07T14:09:29;19.95;;;18.73;;
2576;SDS011;1298;51.252;6.802;2023-12-07T14:12:14;18.20;;;16.98;;
2576;SDS011;1298;51.252;6.802;2023-12-07T14:15:01;18.85;;;17.58;;
2576;SDS011;1298;51.252;6.802;2023-12-07T14:17:46;17.02;;;15.90;;
2576;SDS011;1298;51.252;6.802;2023-12-07T14:20:32;16.58;;;15.48;;
2576;SDS011;1298;51.252;6.802;2023-12-07T14:23:19;16.75;;;15.63;;
2576;SDS011;1298;51.252;6.802;2023-12-07T14:26:04;14.35;;;13.45;;
2576;SDS011;1298;51.252;6.802;2023-12-07T14:28:51;13.35;;;12.52;;
2576;SDS011;1298;51.252;6.802;2023-12-07T14:31:37;12.27;;;11.52;;
2576;SDS011;1298;51.252;6.802;2023-12-07T14:34:23;6.70;;;6.35;;
2576;SDS011;1298;51.252;6.802;2023-12-07T14:37:09;4.53;;;4.30;;
2576;SDS011;1298;51.252;6.802;2023-12-07T14:39:56;4.50;;;4.28;;
2576;SDS011;1298;51.252;6.802;2023-12-07T14:42:42;1.75;;;1.70;;
2576;SDS011;1298;51.252;6.802;2023-12-07T14:45:29;1.88;;;1.83;;
2576;SDS011;1298;51.252;6.802;2023-12-07T14:48:14;0.60;;;0.60;;
2576;SDS011;1298;51.252;6.802;2023-12-07T14:51:00;0.60;;;0.60;;
2576;SDS011;1298;51.252;6.802;2023-12-07T14:53:46;1.40;;;1.40;;
2576;SDS011;1298;51.252;6.802;2023-12-07T14:56:33;0.52;;;0.52;;
2576;SDS011;1298;51.252;6.802;2023-12-07T14:59:19;0.85;;;0.85;;
2576;SDS011;1298;51.252;6.802;2023-12-07T15:02:04;0.55;;;0.55;;
2576;SDS011;1298;51.252;6.802;2023-12-07T15:04:50;0.50;;;0.50;;
2576;SDS011;1298;51.252;6.802;2023-12-07T15:07:35;1.90;;;1.90;;
2576;SDS011;1298;51.252;6.802;2023-12-07T15:10:22;0.60;;;0.60;;
2576;SDS011;1298;51.252;6.802;2023-12-07T15:13:09;0.70;;;0.70;;
2576;SDS011;1298;51.252;6.802;2023-12-07T15:15:55;0.55;;;0.55;;
2576;SDS011;1298;51.252;6.802;2023-12-07T15:18:41;0.60;;;0.60;;
2576;SDS011;1298;51.252;6.802;2023-12-07T15:21:28;0.50;;;0.50;;
2576;SDS011;1298;51.252;6.802;2023-12-07T15:24:14;0.47;;;0.47;;
2576;SDS011;1298;51.252;6.802;2023-12-07T15:27:00;0.50;;;0.50;;
2576;SDS011;1298;51.252;6.802;2023-12-07T15:29:47;0.80;;;0.80;;
2576;SDS011;1298;51.252;6.802;2023-12-07T15:32:32;0.47;;;0.47;;
2576;SDS011;1298;51.252;6.802;2023-12-07T15:35:18;0.60;;;0.60;;
2576;SDS011;1298;51.252;6.802;2023-12-07T15:38:04;0.65;;;0.65;;
2576;SDS011;1298;51.252;6.802;2023-12-07T15:40:50;0.52;;;0.52;;
2576;SDS011;1298;51.252;6.802;2023-12-07T15:43:38;0.85;;;0.85;;
2576;SDS011;1298;51.252;6.802;2023-12-07T15:46:25;0.65;;;0.65;;
2576;SDS011;1298;51.252;6.802;2023-12-07T15:49:10;0.60;;;0.60;;
2576;SDS011;1298;51.252;6.802;2023-12-07T15:51:56;1.00;;;1.00;;
2576;SDS011;1298;51.252;6.802;2023-12-07T15:54:44;0.70;;;0.70;;
2576;SDS011;1298;51.252;6.802;2023-12-07T15:57:30;0.70;;;0.70;;
2576;SDS011;1298;51.252;6.802;2023-12-07T16:00:18;0.68;;;0.68;;
2576;SDS011;1298;51.252;6.802;2023-12-07T16:03:05;0.77;;;0.77;;
2576;SDS011;1298;51.252;6.802;2023-12-07T16:05:50;0.70;;;0.70;;
2576;SDS011;1298;51.252;6.802;2023-12-07T16:08:35;0.80;;;0.80;;
2576;SDS011;1298;51.252;6.802;2023-12-07T16:11:21;0.90;;;0.90;;
2576;SDS011;1298;51.252;6.802;2023-12-07T16:14:07;0.90;;;0.90;;
2576;SDS011;1298;51.252;6.802;2023-12-07T16:16:55;0.80;;;0.80;;
2576;SDS011;1298;51.252;6.802;2023-12-07T16:19:42;0.80;;;0.80;;
2576;SDS011;1298;51.252;6.802;2023-12-07T16:22:27;1.00;;;1.00;;
2576;SDS011;1298;51.252;6.802;2023-12-07T16:25:13;0.88;;;0.88;;
2576;SDS011;1298;51.252;6.802;2023-12-07T16:27:58;0.80;;;0.80;;
2576;SDS011;1298;51.252;6.802;2023-12-07T16:30:44;1.05;;;1.05;;
2576;SDS011;1298;51.252;6.802;2023-12-07T16:33:30;0.98;;;0.98;;
2576;SDS011;1298;51.252;6.802;2023-12-07T16:36:17;0.90;;;0.90;;
2576;SDS011;1298;51.252;6.802;2023-12-07T16:39:03;1.55;;;1.55;;
2576;SDS011;1298;51.252;6.802;2023-12-07T16:41:48;0.98;;;0.98;;
2576;SDS011;1298;51.252;6.802;2023-12-07T16:44:34;1.10;;;1.10;;
2576;SDS011;1298;51.252;6.802;2023-12-07T16:47:19;0.85;;;0.85;;
2576;SDS011;1298;51.252;6.802;2023-12-07T16:50:05;1.20;;;1.20;;
2576;SDS011;1298;51.252;6.802;2023-12-07T16:52:53;0.95;;;0.95;;
2576;SDS011;1298;51.252;6.802;2023-12-07T16:55:39;1.05;;;1.05;;
2576;SDS011;1298;51.252;6.802;2023-12-07T16:58:24;0.95;;;0.95;;
2576;SDS011;1298;51.252;6.802;2023-12-07T17:01:10;0.90;;;0.90;;
2576;SDS011;1298;51.252;6.802;2023-12-07T17:03:58;1.10;;;1.10;;